createdAt,value
2023-05-23T00:00:16.435Z,99.90
2023-05-23T00:02:45.265Z,99.90
2023-05-23T00:05:13.341Z,99.90
2023-05-23T00:07:41.593Z,99.90
2023-05-23T00:10:10.074Z,99.90
2023-05-23T00:12:39.877Z,99.90
2023-05-23T00:15:08.584Z,99.90
2023-05-23T00:17:40.181Z,99.90
2023-05-23T00:20:10.877Z,99.90
2023-05-23T00:22:44.915Z,99.90
2023-05-23T00:25:13.024Z,99.90
2023-05-23T00:27:41.058Z,99.90
2023-05-23T00:30:09.361Z,99.90
2023-05-23T00:32:37.532Z,99.90
2023-05-23T00:35:05.801Z,99.90
2023-05-23T00:37:34.709Z,99.90
2023-05-23T00:40:02.833Z,99.90
2023-05-23T00:42:33.273Z,99.90
2023-05-23T00:45:01.353Z,99.90
2023-05-23T00:47:30.173Z,99.90
2023-05-23T00:49:58.227Z,99.90
2023-05-23T00:52:26.338Z,99.90
2023-05-23T00:54:54.481Z,99.90
2023-05-23T00:57:23.175Z,99.90
2023-05-23T00:59:51.722Z,99.90
2023-05-23T01:02:22.066Z,99.90
2023-05-23T01:04:54.956Z,99.90
2023-05-23T01:07:23.151Z,99.90
2023-05-23T01:09:51.329Z,99.90
2023-05-23T01:12:19.364Z,99.90
2023-05-23T01:14:56.568Z,99.90
2023-05-23T01:17:32.269Z,99.90
2023-05-23T01:20:02.282Z,99.90
2023-05-23T01:22:49.114Z,99.90
2023-05-23T01:25:29.587Z,99.90
2023-05-23T01:28:01.432Z,99.90
2023-05-23T01:30:32.412Z,99.90
2023-05-23T01:33:01.345Z,99.90
2023-05-23T01:35:30.059Z,99.90
2023-05-23T01:37:58.241Z,99.90
2023-05-23T01:40:26.713Z,99.90
2023-05-23T01:42:57.842Z,99.90
2023-05-23T01:45:29.860Z,99.90
2023-05-23T01:47:58.460Z,99.90
2023-05-23T01:50:27.279Z,99.90
2023-05-23T01:52:56.574Z,99.90
2023-05-23T01:55:26.843Z,99.90
2023-05-23T01:57:56.613Z,99.90
2023-05-23T02:00:25.033Z,99.90
2023-05-23T02:02:53.563Z,99.90
2023-05-23T02:05:21.839Z,99.90
2023-05-23T02:07:49.979Z,99.90
2023-05-23T02:10:19.403Z,99.90
2023-05-23T02:12:47.663Z,99.90
2023-05-23T02:15:16.074Z,99.90
2023-05-23T02:17:44.226Z,99.90
2023-05-23T02:20:12.463Z,99.90
2023-05-23T02:22:40.570Z,99.90
2023-05-23T02:25:10.233Z,99.90
2023-05-23T02:27:38.267Z,99.90
2023-05-23T02:30:06.794Z,99.90
2023-05-23T02:32:35.508Z,99.90
2023-05-23T02:35:03.958Z,99.90
2023-05-23T02:37:32.106Z,99.90
2023-05-23T02:40:00.273Z,99.90
2023-05-23T02:42:28.646Z,99.90
2023-05-23T02:44:56.904Z,99.90
2023-05-23T02:47:25.090Z,99.90
2023-05-23T02:49:53.303Z,99.90
2023-05-23T02:52:21.484Z,99.90
2023-05-23T02:54:49.653Z,99.90
2023-05-23T02:57:17.746Z,99.90
2023-05-23T02:59:46.297Z,99.90
2023-05-23T03:02:14.525Z,99.90
2023-05-23T03:04:42.726Z,99.90
2023-05-23T03:07:24.495Z,99.90
2023-05-23T03:09:57.129Z,99.90
2023-05-23T03:12:25.157Z,99.90
2023-05-23T03:14:54.566Z,99.90
2023-05-23T03:17:23.178Z,99.90
2023-05-23T03:19:51.251Z,99.90
2023-05-23T03:22:20.310Z,99.90
2023-05-23T03:24:48.460Z,99.90
2023-05-23T03:27:16.421Z,99.90
2023-05-23T03:29:44.442Z,99.90
2023-05-23T03:32:12.720Z,99.90
2023-05-23T03:34:40.901Z,99.90
2023-05-23T03:37:09.000Z,99.90
2023-05-23T03:39:39.363Z,99.90
2023-05-23T03:42:08.014Z,99.90
2023-05-23T03:44:36.360Z,99.90
2023-05-23T03:47:07.293Z,99.90
2023-05-23T03:49:37.524Z,99.90
2023-05-23T03:52:05.628Z,99.90
2023-05-23T03:54:33.890Z,99.90
2023-05-23T03:57:02.221Z,99.90
2023-05-23T03:59:31.215Z,99.90
2023-05-23T04:02:01.625Z,99.90
2023-05-23T04:04:30.777Z,99.90
2023-05-23T04:06:59.633Z,99.90
2023-05-23T04:09:28.923Z,99.90
2023-05-23T04:11:58.539Z,99.90
2023-05-23T04:14:28.026Z,99.90
2023-05-23T04:16:58.304Z,99.90
2023-05-23T04:19:26.514Z,99.90
2023-05-23T04:21:54.590Z,99.90
2023-05-23T04:24:22.710Z,99.90
2023-05-23T04:26:50.881Z,99.90
2023-05-23T04:29:19.145Z,99.90
2023-05-23T04:31:47.268Z,99.90
2023-05-23T04:34:17.695Z,99.90
2023-05-23T04:36:45.863Z,99.90
2023-05-23T04:39:14.692Z,99.90
2023-05-23T04:41:55.011Z,99.90
2023-05-23T04:44:43.382Z,99.90
2023-05-23T04:47:16.311Z,99.90
2023-05-23T04:49:58.854Z,99.90
2023-05-23T04:52:28.067Z,99.90
2023-05-23T04:54:56.557Z,99.90
2023-05-23T04:57:24.830Z,99.90
2023-05-23T04:59:53.060Z,99.90
2023-05-23T05:02:22.201Z,99.90
2023-05-23T05:04:50.237Z,99.90
2023-05-23T05:07:18.673Z,99.90
2023-05-23T05:09:47.502Z,99.90
2023-05-23T05:12:15.598Z,99.90
2023-05-23T05:14:43.674Z,99.90
2023-05-23T05:17:12.099Z,99.90
2023-05-23T05:20:07.446Z,99.90
2023-05-23T05:22:44.139Z,99.90
2023-05-23T05:25:13.952Z,99.90
2023-05-23T05:27:42.252Z,99.90
2023-05-23T05:30:13.314Z,99.90
2023-05-23T05:32:50.473Z,99.60
2023-05-23T05:35:19.023Z,97.80
2023-05-23T05:37:48.130Z,97.10
2023-05-23T05:40:16.143Z,96.20
2023-05-23T05:42:44.570Z,95.60
2023-05-23T05:45:12.702Z,94.30
2023-05-23T05:47:42.346Z,93.60
2023-05-23T05:50:11.228Z,94.30
2023-05-23T05:52:40.427Z,95.40
2023-05-23T05:55:11.647Z,95.10
2023-05-23T05:57:42.326Z,94.50
2023-05-23T06:00:15.878Z,94.90
2023-05-23T06:02:52.170Z,94.20
2023-05-23T06:05:31.754Z,94.60
2023-05-23T06:07:59.975Z,93.20
2023-05-23T06:10:28.520Z,92.70
2023-05-23T06:12:56.671Z,91.60
2023-05-23T06:15:24.881Z,91.10
2023-05-23T06:17:53.281Z,90.70
2023-05-23T06:20:21.509Z,91.80
2023-05-23T06:22:49.881Z,93.40
2023-05-23T06:25:18.958Z,91.50
2023-05-23T06:27:48.661Z,94.60
2023-05-23T06:30:16.925Z,94.70
2023-05-23T06:32:46.532Z,94.10
2023-05-23T06:35:14.977Z,92.50
2023-05-23T06:37:46.088Z,91.10
2023-05-23T06:40:17.250Z,88.60
2023-05-23T06:42:45.377Z,88.20
2023-05-23T06:45:48.306Z,91.10
2023-05-23T06:48:16.659Z,93.40
2023-05-23T06:50:46.477Z,93.20
2023-05-23T06:53:18.857Z,93.30
2023-05-23T06:55:47.835Z,93.30
2023-05-23T06:58:19.100Z,93.10
2023-05-23T07:00:47.775Z,93.20
2023-05-23T07:03:28.195Z,93.40
2023-05-23T07:06:01.078Z,91.90
2023-05-23T07:08:29.861Z,91.40
2023-05-23T07:11:02.333Z,90.00
2023-05-23T07:13:40.621Z,90.60
2023-05-23T07:16:09.353Z,90.70
2023-05-23T07:18:46.583Z,91.30
2023-05-23T07:21:14.689Z,91.10
2023-05-23T07:23:43.049Z,91.80
2023-05-23T07:26:12.220Z,91.50
2023-05-23T07:28:52.972Z,91.70
2023-05-23T07:31:21.198Z,91.50
2023-05-23T07:33:50.131Z,90.50
2023-05-23T07:36:25.054Z,86.60
2023-05-23T07:38:54.022Z,85.70
2023-05-23T07:41:22.584Z,85.30
2023-05-23T07:43:50.858Z,83.20
2023-05-23T07:46:19.079Z,78.50
2023-05-23T07:48:47.354Z,79.10
2023-05-23T07:51:15.949Z,78.60
2023-05-23T07:53:44.162Z,74.30
2023-05-23T07:56:14.415Z,71.40
2023-05-23T07:58:44.013Z,64.10
2023-05-23T08:01:12.481Z,62.80
2023-05-23T08:04:09.822Z,63.40
2023-05-23T08:07:04.160Z,67.90
2023-05-23T08:09:54.834Z,71.90
2023-05-23T08:12:24.130Z,65.80
2023-05-23T08:15:01.150Z,72.00
2023-05-23T08:17:43.744Z,73.60
2023-05-23T08:20:12.755Z,72.10
2023-05-23T08:22:41.314Z,72.70
2023-05-23T08:25:11.116Z,71.60
2023-05-23T08:27:41.531Z,66.90
2023-05-23T08:30:26.176Z,71.10
2023-05-23T08:32:56.034Z,72.20
2023-05-23T08:35:24.751Z,73.20
2023-05-23T08:37:53.808Z,71.50
2023-05-23T08:40:22.946Z,66.20
2023-05-23T08:42:58.969Z,68.00
2023-05-23T08:45:27.548Z,71.30
2023-05-23T08:47:56.348Z,70.20
2023-05-23T08:50:27.734Z,74.70
2023-05-23T08:53:01.816Z,76.50
2023-05-23T08:55:32.143Z,77.50
2023-05-23T08:58:04.584Z,79.60
2023-05-23T09:00:54.246Z,82.00
2023-05-23T09:03:23.851Z,81.40
2023-05-23T09:06:08.979Z,84.10
2023-05-23T09:08:37.649Z,81.50
2023-05-23T09:11:07.352Z,73.70
2023-05-23T09:13:40.668Z,58.60
2023-05-23T09:16:13.341Z,55.20
2023-05-23T09:18:47.023Z,50.20
2023-05-23T09:21:17.276Z,51.50
2023-05-23T09:24:17.582Z,54.40
2023-05-23T09:26:49.054Z,60.60
2023-05-23T09:29:20.443Z,59.10
2023-05-23T09:31:49.214Z,56.50
2023-05-23T09:34:17.356Z,50.80
2023-05-23T09:36:47.207Z,51.30
2023-05-23T09:39:16.947Z,47.60
2023-05-23T09:41:48.464Z,44.40
2023-05-23T09:44:23.168Z,44.80
2023-05-23T09:46:53.226Z,45.60
2023-05-23T09:49:22.935Z,48.10
2023-05-23T09:51:57.964Z,51.90
2023-05-23T09:54:26.536Z,50.30
2023-05-23T09:56:57.681Z,53.40
2023-05-23T09:59:28.367Z,55.80
2023-05-23T10:01:58.485Z,57.40
2023-05-23T10:04:27.515Z,57.30
2023-05-23T10:06:59.120Z,56.80
2023-05-23T10:09:29.030Z,52.20
2023-05-23T10:11:57.056Z,48.20
2023-05-23T10:14:31.979Z,52.40
2023-05-23T10:17:08.311Z,52.40
2023-05-23T10:19:45.284Z,53.70
2023-05-23T10:22:15.391Z,58.30
2023-05-23T10:24:45.342Z,62.70
2023-05-23T10:27:16.639Z,62.60
2023-05-23T10:29:45.530Z,64.50
2023-05-23T10:32:15.467Z,64.80
2023-05-23T10:35:04.938Z,66.00
2023-05-23T10:37:39.087Z,64.50
2023-05-23T10:40:17.303Z,64.10
2023-05-23T10:42:50.164Z,63.50
2023-05-23T10:45:25.193Z,65.50
2023-05-23T10:47:53.848Z,63.10
2023-05-23T10:50:35.673Z,64.30
2023-05-23T10:53:05.488Z,62.10
2023-05-23T10:55:34.660Z,60.10
2023-05-23T10:58:13.491Z,60.90
2023-05-23T11:00:51.346Z,62.00
2023-05-23T11:03:19.944Z,63.60
2023-05-23T11:05:48.400Z,62.30
2023-05-23T11:08:18.277Z,61.60
2023-05-23T11:11:02.464Z,63.30
2023-05-23T11:13:49.393Z,63.00
2023-05-23T11:16:27.578Z,64.90
2023-05-23T11:19:19.237Z,65.60
2023-05-23T11:21:53.001Z,68.90
2023-05-23T11:24:21.328Z,71.00
2023-05-23T11:27:00.781Z,73.30
2023-05-23T11:29:31.986Z,74.10
2023-05-23T11:32:00.382Z,74.20
2023-05-23T11:34:28.508Z,72.40
2023-05-23T11:36:58.984Z,73.50
2023-05-23T11:39:27.079Z,74.00
2023-05-23T11:42:04.669Z,73.20
2023-05-23T11:44:32.776Z,71.10
2023-05-23T11:47:05.015Z,68.00
2023-05-23T11:49:38.480Z,63.20
2023-05-23T11:52:07.779Z,52.80
2023-05-23T11:54:36.257Z,53.20
2023-05-23T11:57:04.485Z,51.30
2023-05-23T11:59:32.696Z,50.90
2023-05-23T12:02:03.102Z,49.80
2023-05-23T12:04:31.422Z,49.50
2023-05-23T12:06:59.637Z,50.10
2023-05-23T12:09:27.783Z,49.30
2023-05-23T12:11:55.931Z,50.60
2023-05-23T12:14:24.076Z,49.00
2023-05-23T12:16:53.179Z,48.10
2023-05-23T12:19:21.447Z,48.00
2023-05-23T12:21:50.172Z,48.00
2023-05-23T12:24:19.471Z,47.90
2023-05-23T12:26:48.616Z,47.60
2023-05-23T12:29:17.149Z,46.70
2023-05-23T12:31:45.408Z,48.30
2023-05-23T12:34:13.631Z,47.70
2023-05-23T12:36:49.180Z,48.40
2023-05-23T12:39:24.584Z,41.80
2023-05-23T12:41:52.753Z,46.10
2023-05-23T12:44:21.072Z,44.90
2023-05-23T12:46:49.779Z,42.80
2023-05-23T12:49:18.071Z,44.90
2023-05-23T12:51:46.568Z,46.40
2023-05-23T12:54:14.783Z,48.60
2023-05-23T12:56:43.056Z,42.30
2023-05-23T12:59:11.158Z,43.70
2023-05-23T13:01:39.562Z,46.10
2023-05-23T13:04:07.695Z,45.80
2023-05-23T13:06:35.765Z,45.10
2023-05-23T13:09:04.547Z,46.80
2023-05-23T13:11:32.883Z,45.70
2023-05-23T13:14:01.005Z,44.90
2023-05-23T13:16:29.180Z,48.10
2023-05-23T13:18:57.340Z,43.40
2023-05-23T13:21:25.411Z,47.10
2023-05-23T13:23:53.510Z,42.40
2023-05-23T13:26:22.099Z,41.10
2023-05-23T13:28:50.620Z,44.50
2023-05-23T13:31:18.769Z,45.90
2023-05-23T13:33:47.029Z,41.90
2023-05-23T13:36:15.188Z,42.90
2023-05-23T13:38:43.308Z,41.80
2023-05-23T13:41:11.679Z,44.10
2023-05-23T13:43:40.139Z,45.40
2023-05-23T13:46:08.274Z,44.70
2023-05-23T13:48:36.450Z,47.00
2023-05-23T13:51:04.715Z,47.60
2023-05-23T13:53:33.220Z,48.30
2023-05-23T13:56:01.302Z,48.20
2023-05-23T13:58:31.908Z,48.80
2023-05-23T14:01:00.754Z,49.90
2023-05-23T14:03:28.910Z,45.30
2023-05-23T14:05:57.292Z,46.20
2023-05-23T14:08:26.347Z,46.10
2023-05-23T14:10:54.614Z,48.30
2023-05-23T14:13:23.605Z,50.10
2023-05-23T14:15:52.395Z,48.00
2023-05-23T14:18:20.655Z,48.70
2023-05-23T14:20:48.721Z,49.00
2023-05-23T14:23:16.829Z,45.30
2023-05-23T14:25:45.889Z,42.70
2023-05-23T14:28:14.103Z,45.60
2023-05-23T14:30:42.320Z,44.40
2023-05-23T14:33:11.193Z,48.10
2023-05-23T14:35:40.466Z,49.00
2023-05-23T14:38:08.585Z,52.10
2023-05-23T14:40:36.775Z,51.50
2023-05-23T14:43:07.248Z,46.60
2023-05-23T14:45:35.382Z,47.80
2023-05-23T14:48:03.552Z,49.30
2023-05-23T14:50:31.717Z,49.60
2023-05-23T14:53:00.261Z,48.20
2023-05-23T14:55:28.467Z,47.70
2023-05-23T14:57:57.136Z,46.20
2023-05-23T15:00:25.436Z,45.10
2023-05-23T15:02:53.557Z,48.00
2023-05-23T15:05:21.857Z,51.80
2023-05-23T15:07:50.001Z,52.00
2023-05-23T15:10:18.627Z,48.80
2023-05-23T15:12:46.890Z,53.00
2023-05-23T15:15:16.998Z,53.60
2023-05-23T15:17:45.153Z,54.90
2023-05-23T15:20:13.407Z,55.40
2023-05-23T15:22:41.732Z,50.30
2023-05-23T15:25:10.293Z,50.50
2023-05-23T15:27:38.422Z,51.60
2023-05-23T15:30:06.888Z,50.60
2023-05-23T15:32:34.979Z,52.00
2023-05-23T15:35:03.267Z,50.80
2023-05-23T15:37:31.458Z,51.80
2023-05-23T15:39:59.672Z,50.80
2023-05-23T15:42:27.758Z,51.30
2023-05-23T15:44:56.314Z,53.40
2023-05-23T15:47:24.510Z,53.30
2023-05-23T15:49:52.736Z,52.90
2023-05-23T15:52:20.948Z,49.70
2023-05-23T15:54:49.150Z,54.10
2023-05-23T15:57:17.511Z,56.90
2023-05-23T15:59:45.749Z,56.80
2023-05-23T16:02:15.070Z,56.70
2023-05-23T16:04:43.108Z,56.50
2023-05-23T16:07:11.938Z,56.30
2023-05-23T16:09:40.047Z,57.80
2023-05-23T16:12:08.402Z,60.10
2023-05-23T16:14:36.635Z,59.70
2023-05-23T16:17:07.406Z,59.40
2023-05-23T16:19:35.795Z,62.30
2023-05-23T16:22:04.011Z,65.20
2023-05-23T16:24:32.087Z,63.60
2023-05-23T16:27:01.117Z,65.90
2023-05-23T16:29:29.215Z,67.20
2023-05-23T16:31:57.418Z,65.60
2023-05-23T16:34:25.562Z,65.30
2023-05-23T16:36:53.692Z,65.00
2023-05-23T16:39:22.126Z,66.20
2023-05-23T16:41:50.249Z,69.00
2023-05-23T16:44:18.596Z,68.60
2023-05-23T16:46:46.854Z,71.20
2023-05-23T16:49:15.451Z,75.20
2023-05-23T16:51:43.733Z,77.10
2023-05-23T16:54:11.959Z,76.10
2023-05-23T16:56:40.542Z,78.80
2023-05-23T16:59:08.589Z,80.40
2023-05-23T17:01:36.732Z,81.10
2023-05-23T17:04:05.051Z,74.70
2023-05-23T17:06:33.958Z,77.70
2023-05-23T17:09:02.043Z,79.60
2023-05-23T17:11:30.264Z,80.60
2023-05-23T17:13:58.508Z,84.70
2023-05-23T17:16:26.671Z,82.20
2023-05-23T17:18:54.755Z,80.80
2023-05-23T17:21:23.102Z,82.50
2023-05-23T17:23:51.747Z,84.10
2023-05-23T17:26:20.009Z,87.00
2023-05-23T17:28:48.121Z,83.20
2023-05-23T17:31:16.812Z,85.30
2023-05-23T17:33:45.004Z,85.50
2023-05-23T17:36:13.223Z,84.80
2023-05-23T17:38:42.042Z,84.90
2023-05-23T17:41:10.298Z,86.10
2023-05-23T17:43:38.399Z,85.70
2023-05-23T17:46:06.467Z,89.10
2023-05-23T17:48:46.372Z,87.80
2023-05-23T17:51:16.251Z,88.00
2023-05-23T17:53:44.477Z,90.30
2023-05-23T17:56:12.649Z,93.90
2023-05-23T17:58:42.575Z,92.10
2023-05-23T18:01:12.366Z,88.60
2023-05-23T18:03:40.559Z,87.40
2023-05-23T18:06:08.812Z,87.10
2023-05-23T18:08:37.039Z,88.20
2023-05-23T18:11:05.167Z,87.50
2023-05-23T18:13:33.166Z,86.20
2023-05-23T18:16:01.291Z,86.60
2023-05-23T18:18:29.326Z,87.40
2023-05-23T18:20:57.552Z,88.20
2023-05-23T18:23:25.615Z,87.20
2023-05-23T18:25:54.723Z,87.80
2023-05-23T18:28:22.930Z,90.00
2023-05-23T18:30:51.066Z,91.60
2023-05-23T18:33:19.376Z,91.70
2023-05-23T18:35:47.626Z,92.00
2023-05-23T18:38:15.863Z,94.60
2023-05-23T18:40:44.424Z,94.60
2023-05-23T18:43:13.984Z,96.80
2023-05-23T18:45:42.564Z,95.30
2023-05-23T18:48:10.783Z,93.10
2023-05-23T18:50:39.152Z,92.70
2023-05-23T18:53:07.830Z,94.00
2023-05-23T18:55:36.560Z,93.70
2023-05-23T18:58:09.043Z,93.90
2023-05-23T19:00:37.253Z,95.20
2023-05-23T19:03:05.414Z,92.40
2023-05-23T19:05:33.530Z,92.50
2023-05-23T19:08:01.768Z,92.50
2023-05-23T19:10:29.981Z,95.90
2023-05-23T19:12:58.103Z,92.30
2023-05-23T19:15:26.384Z,92.20
2023-05-23T19:17:54.473Z,92.40
2023-05-23T19:20:22.664Z,92.30
2023-05-23T19:22:51.808Z,92.50
2023-05-23T19:25:20.514Z,92.70
2023-05-23T19:27:48.962Z,92.70
2023-05-23T19:30:17.225Z,93.00
2023-05-23T19:32:45.555Z,93.40
2023-05-23T19:35:15.736Z,95.00
2023-05-23T19:37:45.423Z,96.20
2023-05-23T19:40:13.933Z,97.00
2023-05-23T19:42:42.146Z,97.70
2023-05-23T19:45:10.502Z,99.50
2023-05-23T19:47:38.701Z,98.80
2023-05-23T19:50:07.806Z,97.60
2023-05-23T19:52:36.024Z,94.20
2023-05-23T19:55:04.565Z,94.10
2023-05-23T19:57:32.892Z,93.80
2023-05-23T20:00:01.353Z,93.90
2023-05-23T20:02:33.289Z,94.50
2023-05-23T20:05:01.462Z,94.80
2023-05-23T20:07:29.604Z,95.40
2023-05-23T20:09:57.659Z,95.40
2023-05-23T20:12:25.813Z,95.80
2023-05-23T20:14:53.813Z,96.40
2023-05-23T20:17:21.909Z,96.50
2023-05-23T20:19:49.987Z,97.30
2023-05-23T20:22:18.232Z,96.60
2023-05-23T20:24:47.213Z,97.10
2023-05-23T20:27:15.598Z,97.00
2023-05-23T20:29:43.683Z,96.60
2023-05-23T20:32:11.843Z,96.70
2023-05-23T20:34:39.867Z,97.60
2023-05-23T20:37:07.971Z,97.90
2023-05-23T20:39:38.026Z,98.30
2023-05-23T20:42:06.125Z,98.30
2023-05-23T20:44:38.281Z,99.90
2023-05-23T20:47:12.928Z,99.90
2023-05-23T20:49:42.752Z,99.90
2023-05-23T20:52:10.997Z,96.80
2023-05-23T20:54:39.115Z,96.90
2023-05-23T20:57:07.190Z,97.00
2023-05-23T20:59:35.209Z,96.80
2023-05-23T21:02:03.378Z,97.20
2023-05-23T21:04:33.956Z,97.60
2023-05-23T21:07:01.984Z,97.50
2023-05-23T21:09:29.966Z,99.90
2023-05-23T21:12:09.566Z,99.90
2023-05-23T21:14:42.198Z,99.50
2023-05-23T21:17:10.289Z,99.90
2023-05-23T21:19:38.456Z,99.70
2023-05-23T21:22:06.738Z,98.40
2023-05-23T21:24:34.955Z,98.50
2023-05-23T21:27:03.414Z,98.20
2023-05-23T21:29:31.518Z,98.20
2023-05-23T21:31:59.623Z,98.20
2023-05-23T21:34:27.949Z,98.50
2023-05-23T21:36:56.085Z,98.60
2023-05-23T21:39:24.187Z,99.40
2023-05-23T21:41:52.254Z,99.50
2023-05-23T21:44:20.701Z,99.70
2023-05-23T21:46:49.132Z,99.90
2023-05-23T21:49:17.653Z,99.90
2023-05-23T21:51:45.992Z,99.90
2023-05-23T21:54:14.791Z,99.90
2023-05-23T21:56:42.926Z,99.90
2023-05-23T21:59:11.222Z,99.90
2023-05-23T22:01:39.493Z,99.90
2023-05-23T22:04:08.662Z,99.90
2023-05-23T22:06:37.020Z,99.90
2023-05-23T22:09:06.057Z,99.20
2023-05-23T22:11:35.269Z,99.10
2023-05-23T22:14:03.649Z,99.40
2023-05-23T22:16:42.003Z,99.80
2023-05-23T22:19:12.904Z,99.80
2023-05-23T22:21:41.129Z,99.70
2023-05-23T22:24:09.191Z,99.90
2023-05-23T22:26:40.241Z,99.90
2023-05-23T22:29:08.606Z,99.90
2023-05-23T22:31:39.019Z,99.90
2023-05-23T22:34:07.120Z,99.90
2023-05-23T22:36:35.272Z,99.90
2023-05-23T22:39:05.777Z,99.90
2023-05-23T22:41:34.977Z,99.90
2023-05-23T22:44:03.041Z,99.90
2023-05-23T22:46:33.392Z,99.90
2023-05-23T22:49:04.136Z,99.90
2023-05-23T22:51:34.444Z,99.90
2023-05-23T22:54:06.030Z,99.90
2023-05-23T22:56:34.358Z,99.90
2023-05-23T22:59:02.479Z,99.90
2023-05-23T23:01:33.681Z,99.90
2023-05-23T23:04:01.972Z,99.90
2023-05-23T23:06:30.028Z,99.90
2023-05-23T23:08:58.056Z,99.90
2023-05-23T23:11:28.617Z,99.90
2023-05-23T23:13:58.886Z,99.90
2023-05-23T23:16:27.451Z,99.90
2023-05-23T23:18:59.266Z,99.90
2023-05-23T23:21:27.829Z,99.90
2023-05-23T23:23:58.904Z,99.90
2023-05-23T23:26:28.233Z,99.90
2023-05-23T23:28:56.305Z,99.90
2023-05-23T23:31:27.539Z,99.90
2023-05-23T23:33:56.194Z,99.90
2023-05-23T23:36:26.893Z,99.90
2023-05-23T23:38:57.259Z,99.90
2023-05-23T23:41:25.462Z,99.90
2023-05-23T23:43:55.861Z,99.90
2023-05-23T23:46:28.879Z,99.90
2023-05-23T23:48:57.022Z,99.90
2023-05-23T23:51:27.329Z,99.90
2023-05-23T23:53:55.401Z,99.90
2023-05-23T23:56:25.177Z,99.90
2023-05-23T23:58:53.293Z,99.90
